Seaton, Texas
Current Conditions -  °F | °C
As of 7:55 AM on Monday 24 Nov 2014 (Local Time) from KTPL Reporting Station
Clear Clear  
Wind Chill: 42°   Ceiling: Unl
Heat Index: 46°   Visibility: 10mi
Dew Point: 34°   Wind: 9mph
Humidity: 62%   Direction: 310°NW
Pressure: 30.02"   Gusts: NA
Location:  31.0795°N, 97.3287°W
Report Text: KTPL 241355Z AUTO 31008KT 10SM CLR 08/01 A3002 RMK AO1
Loading
Personal Weather Stations






























Interactive Weather Map New forecast layout! Learn more

10-Day Weather Forecast

Advertisements
Track Severe Weather on mobile